sensor_id;sensor_type;location;lat;lon;timestamp;pressure;altitude;pressure_sealevel;temperature;humidity
818;BME280;391;51.052;6.954;2023-02-14T00:00:14;102808.44;;;9.50;65.54
818;BME280;391;51.052;6.954;2023-02-14T00:02:18;102844.50;;;9.70;65.22
818;BME280;391;51.052;6.954;2023-02-14T00:04:22;102848.00;;;9.71;65.27
818;BME280;391;51.052;6.954;2023-02-14T00:06:27;102730.81;;;9.05;64.94
818;BME280;391;51.052;6.954;2023-02-14T00:08:31;102843.63;;;9.70;65.42
818;BME280;391;51.052;6.954;2023-02-14T00:10:34;102842.81;;;9.71;64.76
818;BME280;391;51.052;6.954;2023-02-14T00:12:38;102849.84;;;9.72;65.10
818;BME280;391;51.052;6.954;2023-02-14T00:14:41;102842.09;;;9.73;64.77
818;BME280;391;51.052;6.954;2023-02-14T00:17:02;102844.63;;;9.72;64.98
818;BME280;391;51.052;6.954;2023-02-14T00:19:05;102848.34;;;9.75;64.51
818;BME280;391;51.052;6.954;2023-02-14T00:21:09;102835.09;;;9.72;64.55
818;BME280;391;51.052;6.954;2023-02-14T00:23:13;102846.63;;;9.76;64.41
818;BME280;391;51.052;6.954;2023-02-14T00:25:17;102843.44;;;9.67;64.59
818;BME280;391;51.052;6.954;2023-02-14T00:27:21;102840.38;;;9.61;64.38
818;BME280;391;51.052;6.954;2023-02-14T00:29:26;102836.28;;;9.51;64.47
818;BME280;391;51.052;6.954;2023-02-14T00:31:30;102829.75;;;9.31;64.82
818;BME280;391;51.052;6.954;2023-02-14T00:33:34;102830.63;;;9.32;64.88
818;BME280;391;51.052;6.954;2023-02-14T00:35:37;102831.84;;;9.24;64.79
818;BME280;391;51.052;6.954;2023-02-14T00:37:40;102831.84;;;9.24;65.06
818;BME280;391;51.052;6.954;2023-02-14T00:39:47;102827.31;;;9.21;65.03
818;BME280;391;51.052;6.954;2023-02-14T00:41:50;102823.81;;;9.21;65.48
818;BME280;391;51.052;6.954;2023-02-14T00:43:54;102821.91;;;9.18;65.41
818;BME280;391;51.052;6.954;2023-02-14T00:45:58;102815.88;;;9.06;65.30
818;BME280;391;51.052;6.954;2023-02-14T00:48:04;102818.38;;;9.04;65.59
818;BME280;391;51.052;6.954;2023-02-14T00:50:07;102819.84;;;9.01;65.79
818;BME280;391;51.052;6.954;2023-02-14T00:52:11;102814.56;;;8.99;65.76
818;BME280;391;51.052;6.954;2023-02-14T00:54:14;102814.13;;;8.93;66.13
818;BME280;391;51.052;6.954;2023-02-14T00:56:22;102817.53;;;8.92;66.32
818;BME280;391;51.052;6.954;2023-02-14T00:58:26;102811.84;;;8.98;66.10
818;BME280;391;51.052;6.954;2023-02-14T01:00:29;102816.25;;;8.99;65.95
818;BME280;391;51.052;6.954;2023-02-14T01:02:33;102759.78;;;8.60;66.01
818;BME280;391;51.052;6.954;2023-02-14T01:04:36;102812.00;;;8.88;66.20
818;BME280;391;51.052;6.954;2023-02-14T01:06:40;102808.19;;;8.83;66.73
818;BME280;391;51.052;6.954;2023-02-14T01:08:44;102810.09;;;8.85;66.66
818;BME280;391;51.052;6.954;2023-02-14T01:10:47;102815.56;;;8.77;66.84
818;BME280;391;51.052;6.954;2023-02-14T01:12:52;102810.59;;;8.80;67.07
818;BME280;391;51.052;6.954;2023-02-14T01:14:55;102806.75;;;8.75;67.08
818;BME280;391;51.052;6.954;2023-02-14T01:16:59;102812.38;;;8.81;67.38
818;BME280;391;51.052;6.954;2023-02-14T01:19:02;102815.31;;;8.85;66.99
818;BME280;391;51.052;6.954;2023-02-14T01:21:10;102815.44;;;8.87;67.00
818;BME280;391;51.052;6.954;2023-02-14T01:23:13;102809.72;;;8.92;67.23
818;BME280;391;51.052;6.954;2023-02-14T01:25:17;102800.22;;;8.93;67.28
818;BME280;391;51.052;6.954;2023-02-14T01:27:20;102804.63;;;8.94;67.20
818;BME280;391;51.052;6.954;2023-02-14T01:29:25;102792.69;;;8.84;66.76
818;BME280;391;51.052;6.954;2023-02-14T01:31:30;102809.31;;;8.86;67.20
818;BME280;391;51.052;6.954;2023-02-14T01:33:34;102807.38;;;8.84;66.75
818;BME280;391;51.052;6.954;2023-02-14T01:35:37;102811.59;;;8.82;66.97
818;BME280;391;51.052;6.954;2023-02-14T01:37:41;102767.19;;;8.54;66.94
818;BME280;391;51.052;6.954;2023-02-14T01:39:44;102810.47;;;8.78;67.18
818;BME280;391;51.052;6.954;2023-02-14T01:41:48;102815.78;;;8.80;66.94
818;BME280;391;51.052;6.954;2023-02-14T01:43:55;102806.97;;;8.78;66.62
818;BME280;391;51.052;6.954;2023-02-14T01:46:00;102808.56;;;8.76;66.49
818;BME280;391;51.052;6.954;2023-02-14T01:48:04;102807.44;;;8.72;66.70
818;BME280;391;51.052;6.954;2023-02-14T01:50:12;102807.34;;;8.71;66.88
818;BME280;391;51.052;6.954;2023-02-14T01:52:21;102784.47;;;8.54;66.35
818;BME280;391;51.052;6.954;2023-02-14T01:54:26;102819.31;;;8.69;66.55
818;BME280;391;51.052;6.954;2023-02-14T01:56:34;102811.22;;;8.64;66.54
818;BME280;391;51.052;6.954;2023-02-14T01:58:41;102812.09;;;8.65;66.64
818;BME280;391;51.052;6.954;2023-02-14T02:00:46;102822.50;;;8.65;66.45
818;BME280;391;51.052;6.954;2023-02-14T02:03:00;102814.69;;;8.65;66.69
818;BME280;391;51.052;6.954;2023-02-14T02:05:05;102808.41;;;8.61;66.56
818;BME280;391;51.052;6.954;2023-02-14T02:07:11;102812.50;;;8.58;66.32
818;BME280;391;51.052;6.954;2023-02-14T02:09:19;102793.75;;;8.50;66.38
818;BME280;391;51.052;6.954;2023-02-14T02:11:24;102803.16;;;8.48;66.37
818;BME280;391;51.052;6.954;2023-02-14T02:13:27;102800.44;;;8.46;66.40
818;BME280;391;51.052;6.954;2023-02-14T02:15:36;102804.72;;;8.46;66.76
818;BME280;391;51.052;6.954;2023-02-14T02:17:49;102798.31;;;8.41;66.53
818;BME280;391;51.052;6.954;2023-02-14T02:20:25;102800.00;;;8.40;66.50
818;BME280;391;51.052;6.954;2023-02-14T02:25:26;102796.75;;;8.31;66.86
818;BME280;391;51.052;6.954;2023-02-14T02:27:59;102800.94;;;8.29;66.69
818;BME280;391;51.052;6.954;2023-02-14T02:35:30;102788.84;;;8.18;66.85
818;BME280;391;51.052;6.954;2023-02-14T02:37:45;102793.38;;;8.09;66.88
818;BME280;391;51.052;6.954;2023-02-14T02:40:05;102795.88;;;8.08;66.83
818;BME280;391;51.052;6.954;2023-02-14T02:42:23;102792.38;;;8.07;67.09
818;BME280;391;51.052;6.954;2023-02-14T02:44:42;102784.69;;;8.09;67.36
818;BME280;391;51.052;6.954;2023-02-14T02:46:54;102779.16;;;8.04;67.16
818;BME280;391;51.052;6.954;2023-02-14T02:49:07;102784.03;;;7.99;67.20
818;BME280;391;51.052;6.954;2023-02-14T02:51:19;102783.03;;;7.97;66.92
818;BME280;391;51.052;6.954;2023-02-14T02:53:45;102786.50;;;7.98;66.84
818;BME280;391;51.052;6.954;2023-02-14T02:55:52;102788.88;;;7.95;66.82
818;BME280;391;51.052;6.954;2023-02-14T02:58:15;102788.34;;;7.87;67.15
818;BME280;391;51.052;6.954;2023-02-14T03:00:20;102789.69;;;7.82;67.13
818;BME280;391;51.052;6.954;2023-02-14T03:02:29;102722.91;;;7.45;67.41
818;BME280;391;51.052;6.954;2023-02-14T03:04:37;102788.91;;;7.83;67.02
818;BME280;391;51.052;6.954;2023-02-14T03:06:59;102786.44;;;7.73;67.10
818;BME280;391;51.052;6.954;2023-02-14T03:09:52;102795.47;;;7.67;67.21
818;BME280;391;51.052;6.954;2023-02-14T03:12:09;102795.25;;;7.64;67.29
818;BME280;391;51.052;6.954;2023-02-14T03:14:18;102792.56;;;7.62;67.47
818;BME280;391;51.052;6.954;2023-02-14T03:16:33;102748.75;;;7.32;67.52
818;BME280;391;51.052;6.954;2023-02-14T03:18:47;102796.16;;;7.53;67.44
818;BME280;391;51.052;6.954;2023-02-14T03:21:20;102799.88;;;7.44;67.23
818;BME280;391;51.052;6.954;2023-02-14T03:23:29;102790.72;;;7.38;67.90
818;BME280;391;51.052;6.954;2023-02-14T03:25:41;102794.91;;;7.36;67.54
818;BME280;391;51.052;6.954;2023-02-14T03:27:55;102786.09;;;7.34;67.46
818;BME280;391;51.052;6.954;2023-02-14T03:30:06;102792.31;;;7.36;67.72
818;BME280;391;51.052;6.954;2023-02-14T03:32:15;102798.19;;;7.33;67.69
818;BME280;391;51.052;6.954;2023-02-14T03:34:25;102793.53;;;7.29;67.82
818;BME280;391;51.052;6.954;2023-02-14T03:36:34;102796.47;;;7.34;68.03
818;BME280;391;51.052;6.954;2023-02-14T03:38:42;102796.59;;;7.35;67.97
818;BME280;391;51.052;6.954;2023-02-14T03:40:50;102782.03;;;7.26;68.03
818;BME280;391;51.052;6.954;2023-02-14T03:43:00;102769.94;;;7.15;67.87
818;BME280;391;51.052;6.954;2023-02-14T03:45:08;102793.19;;;7.25;68.17
818;BME280;391;51.052;6.954;2023-02-14T03:47:17;102774.00;;;7.11;68.11
818;BME280;391;51.052;6.954;2023-02-14T03:49:26;102793.88;;;7.22;68.07
818;BME280;391;51.052;6.954;2023-02-14T03:51:33;102797.91;;;7.19;67.78
818;BME280;391;51.052;6.954;2023-02-14T03:53:42;102792.28;;;7.13;68.15
818;BME280;391;51.052;6.954;2023-02-14T03:55:54;102767.41;;;6.93;68.89
818;BME280;391;51.052;6.954;2023-02-14T03:58:05;102785.38;;;7.02;68.22
818;BME280;391;51.052;6.954;2023-02-14T04:00:11;102789.66;;;7.01;68.30
818;BME280;391;51.052;6.954;2023-02-14T04:02:19;102791.78;;;6.95;68.29
818;BME280;391;51.052;6.954;2023-02-14T04:04:26;102785.78;;;6.96;68.53
818;BME280;391;51.052;6.954;2023-02-14T04:06:30;102782.66;;;7.00;68.72
818;BME280;391;51.052;6.954;2023-02-14T04:08:34;102784.34;;;7.00;68.72
818;BME280;391;51.052;6.954;2023-02-14T04:10:38;102782.50;;;6.87;69.08
818;BME280;391;51.052;6.954;2023-02-14T04:12:44;102689.09;;;6.41;69.29
818;BME280;391;51.052;6.954;2023-02-14T04:14:47;102779.69;;;6.96;69.29
818;BME280;391;51.052;6.954;2023-02-14T04:16:50;102784.34;;;7.00;69.60
818;BME280;391;51.052;6.954;2023-02-14T04:19:11;102779.38;;;7.03;69.77
818;BME280;391;51.052;6.954;2023-02-14T04:21:27;102782.56;;;7.10;69.54
818;BME280;391;51.052;6.954;2023-02-14T04:23:30;102675.25;;;6.52;69.77
818;BME280;391;51.052;6.954;2023-02-14T04:25:34;102783.03;;;7.16;69.70
818;BME280;391;51.052;6.954;2023-02-14T04:27:42;102771.06;;;7.18;69.74
818;BME280;391;51.052;6.954;2023-02-14T04:29:48;102782.91;;;7.15;69.56
818;BME280;391;51.052;6.954;2023-02-14T04:31:52;102787.25;;;6.92;69.99
818;BME280;391;51.052;6.954;2023-02-14T04:33:55;102781.28;;;6.82;70.26
818;BME280;391;51.052;6.954;2023-02-14T04:35:59;102777.56;;;6.90;70.69
818;BME280;391;51.052;6.954;2023-02-14T04:38:03;102784.25;;;6.98;70.40
818;BME280;391;51.052;6.954;2023-02-14T04:40:07;102780.75;;;6.98;70.19
818;BME280;391;51.052;6.954;2023-02-14T04:42:11;102775.31;;;6.95;69.99
818;BME280;391;51.052;6.954;2023-02-14T04:44:16;102772.19;;;6.99;70.11
818;BME280;391;51.052;6.954;2023-02-14T04:46:20;102775.66;;;6.99;69.88
818;BME280;391;51.052;6.954;2023-02-14T04:48:23;102780.06;;;7.00;69.70
818;BME280;391;51.052;6.954;2023-02-14T04:50:27;102738.50;;;6.77;69.46
818;BME280;391;51.052;6.954;2023-02-14T04:52:30;102769.00;;;7.03;69.63
818;BME280;391;51.052;6.954;2023-02-14T04:54:34;102771.06;;;7.07;69.49
818;BME280;391;51.052;6.954;2023-02-14T04:56:37;102770.28;;;7.08;69.42
818;BME280;391;51.052;6.954;2023-02-14T04:58:41;102760.47;;;7.04;69.56
818;BME280;391;51.052;6.954;2023-02-14T05:00:46;102761.56;;;6.96;69.63
818;BME280;391;51.052;6.954;2023-02-14T05:02:49;102770.00;;;6.93;69.58
818;BME280;391;51.052;6.954;2023-02-14T05:04:52;102769.78;;;6.90;69.67
818;BME280;391;51.052;6.954;2023-02-14T05:06:56;102766.50;;;6.92;69.81
818;BME280;391;51.052;6.954;2023-02-14T05:08:59;102768.78;;;6.88;69.62
818;BME280;391;51.052;6.954;2023-02-14T05:11:03;102749.09;;;6.68;69.71
818;BME280;391;51.052;6.954;2023-02-14T05:13:07;102761.06;;;6.78;70.07
818;BME280;391;51.052;6.954;2023-02-14T05:15:10;102750.00;;;6.69;70.13
818;BME280;391;51.052;6.954;2023-02-14T05:17:15;102754.66;;;6.51;70.77
818;BME280;391;51.052;6.954;2023-02-14T05:19:18;102751.31;;;6.30;71.45
818;BME280;391;51.052;6.954;2023-02-14T05:21:22;102750.34;;;6.40;71.11
818;BME280;391;51.052;6.954;2023-02-14T05:23:25;102744.25;;;6.39;71.50
818;BME280;391;51.052;6.954;2023-02-14T05:25:29;102740.59;;;6.26;71.44
818;BME280;391;51.052;6.954;2023-02-14T05:27:33;102740.91;;;6.41;71.41
818;BME280;391;51.052;6.954;2023-02-14T05:29:36;102734.09;;;6.31;71.44
818;BME280;391;51.052;6.954;2023-02-14T05:31:39;102733.56;;;6.13;71.95
818;BME280;391;51.052;6.954;2023-02-14T05:33:44;102733.41;;;6.22;72.49
818;BME280;391;51.052;6.954;2023-02-14T05:35:47;102736.69;;;6.31;72.69
818;BME280;391;51.052;6.954;2023-02-14T05:37:51;102693.25;;;6.17;71.92
818;BME280;391;51.052;6.954;2023-02-14T05:39:54;102733.22;;;6.42;72.36
818;BME280;391;51.052;6.954;2023-02-14T05:41:57;102732.31;;;6.42;72.29
818;BME280;391;51.052;6.954;2023-02-14T05:44:01;102732.75;;;6.36;72.30
818;BME280;391;51.052;6.954;2023-02-14T05:46:04;102732.09;;;6.38;72.03
818;BME280;391;51.052;6.954;2023-02-14T05:48:08;102736.13;;;6.35;72.22
818;BME280;391;51.052;6.954;2023-02-14T05:50:13;102731.38;;;6.29;72.51
818;BME280;391;51.052;6.954;2023-02-14T05:52:16;102732.28;;;6.30;72.49
818;BME280;391;51.052;6.954;2023-02-14T05:54:19;102698.63;;;6.08;72.32
818;BME280;391;51.052;6.954;2023-02-14T05:56:23;102730.91;;;6.23;72.15
818;BME280;391;51.052;6.954;2023-02-14T05:58:26;102733.25;;;6.20;72.41
818;BME280;391;51.052;6.954;2023-02-14T06:00:30;102723.81;;;6.21;72.30
818;BME280;391;51.052;6.954;2023-02-14T06:02:33;102726.16;;;6.18;71.73
818;BME280;391;51.052;6.954;2023-02-14T06:04:36;102733.78;;;6.16;71.62
818;BME280;391;51.052;6.954;2023-02-14T06:06:41;102732.13;;;5.95;72.57
818;BME280;391;51.052;6.954;2023-02-14T06:08:44;102726.94;;;5.95;72.72
818;BME280;391;51.052;6.954;2023-02-14T06:10:48;102732.13;;;5.85;73.24
818;BME280;391;51.052;6.954;2023-02-14T06:12:52;102734.22;;;5.89;73.17
818;BME280;391;51.052;6.954;2023-02-14T06:14:56;102730.88;;;5.80;74.29
818;BME280;391;51.052;6.954;2023-02-14T06:16:59;102737.84;;;5.81;74.32
818;BME280;391;51.052;6.954;2023-02-14T06:19:03;102738.00;;;5.72;74.63
818;BME280;391;51.052;6.954;2023-02-14T06:21:06;102717.75;;;5.57;75.47
818;BME280;391;51.052;6.954;2023-02-14T06:23:11;102746.06;;;5.65;75.81
818;BME280;391;51.052;6.954;2023-02-14T06:25:15;102743.22;;;5.62;76.14
818;BME280;391;51.052;6.954;2023-02-14T06:27:18;102722.16;;;5.58;76.68
818;BME280;391;51.052;6.954;2023-02-14T06:29:22;102738.44;;;5.67;77.62
818;BME280;391;51.052;6.954;2023-02-14T06:31:25;102742.16;;;5.70;77.44
818;BME280;391;51.052;6.954;2023-02-14T06:33:29;102744.34;;;5.76;77.29
818;BME280;391;51.052;6.954;2023-02-14T06:35:32;102747.66;;;5.85;76.86
818;BME280;391;51.052;6.954;2023-02-14T06:37:36;102751.25;;;5.97;76.86
818;BME280;391;51.052;6.954;2023-02-14T06:39:41;102751.63;;;6.02;76.75
818;BME280;391;51.052;6.954;2023-02-14T06:41:44;102752.16;;;5.98;76.84
818;BME280;391;51.052;6.954;2023-02-14T06:43:47;102754.63;;;5.96;77.17
818;BME280;391;51.052;6.954;2023-02-14T06:45:51;102756.44;;;5.97;77.64
818;BME280;391;51.052;6.954;2023-02-14T06:47:55;102756.31;;;5.96;77.72
818;BME280;391;51.052;6.954;2023-02-14T06:49:58;102744.34;;;5.76;78.09
818;BME280;391;51.052;6.954;2023-02-14T06:52:03;102743.88;;;5.60;78.00
818;BME280;391;51.052;6.954;2023-02-14T06:54:07;102755.47;;;5.75;77.82
818;BME280;391;51.052;6.954;2023-02-14T06:56:11;102763.38;;;5.76;78.66
818;BME280;391;51.052;6.954;2023-02-14T06:58:15;102758.28;;;5.78;78.40
818;BME280;391;51.052;6.954;2023-02-14T07:00:19;102762.97;;;5.72;78.45
818;BME280;391;51.052;6.954;2023-02-14T07:02:22;102764.78;;;5.73;78.87
818;BME280;391;51.052;6.954;2023-02-14T07:04:26;102765.31;;;5.69;78.66
818;BME280;391;51.052;6.954;2023-02-14T07:06:29;102758.84;;;5.74;78.76
818;BME280;391;51.052;6.954;2023-02-14T07:08:33;102766.72;;;5.75;78.75
818;BME280;391;51.052;6.954;2023-02-14T07:10:36;102765.47;;;5.70;79.45
818;BME280;391;51.052;6.954;2023-02-14T07:12:41;102765.72;;;5.73;79.10
818;BME280;391;51.052;6.954;2023-02-14T07:14:44;102714.16;;;5.55;78.91
818;BME280;391;51.052;6.954;2023-02-14T07:16:48;102761.31;;;5.72;79.56
818;BME280;391;51.052;6.954;2023-02-14T07:18:52;102758.88;;;5.64;79.84
818;BME280;391;51.052;6.954;2023-02-14T07:20:56;102753.44;;;5.71;80.02
818;BME280;391;51.052;6.954;2023-02-14T07:23:00;102751.97;;;5.74;79.81
818;BME280;391;51.052;6.954;2023-02-14T07:25:05;102762.88;;;5.70;80.07
818;BME280;391;51.052;6.954;2023-02-14T07:27:08;102756.66;;;5.68;80.32
818;BME280;391;51.052;6.954;2023-02-14T07:29:13;102759.19;;;5.78;80.03
818;BME280;391;51.052;6.954;2023-02-14T07:31:17;102749.78;;;5.69;79.61
818;BME280;391;51.052;6.954;2023-02-14T07:33:23;102762.69;;;5.79;80.07
818;BME280;391;51.052;6.954;2023-02-14T07:35:27;102760.06;;;5.99;82.09
818;BME280;391;51.052;6.954;2023-02-14T07:37:31;102751.13;;;7.17;88.90
818;BME280;391;51.052;6.954;2023-02-14T07:39:34;102755.31;;;7.62;85.20
818;BME280;391;51.052;6.954;2023-02-14T07:41:38;102766.44;;;7.72;85.66
818;BME280;391;51.052;6.954;2023-02-14T07:43:44;102674.06;;;7.39;83.40
818;BME280;391;51.052;6.954;2023-02-14T07:45:49;102758.81;;;7.39;81.23
818;BME280;391;51.052;6.954;2023-02-14T07:47:53;102760.56;;;7.05;80.98
818;BME280;391;51.052;6.954;2023-02-14T07:49:57;102754.66;;;6.84;80.74
818;BME280;391;51.052;6.954;2023-02-14T07:52:02;102741.56;;;6.71;80.32
818;BME280;391;51.052;6.954;2023-02-14T07:54:06;102745.50;;;6.66;80.21
818;BME280;391;51.052;6.954;2023-02-14T07:56:09;102749.06;;;6.57;79.82
818;BME280;391;51.052;6.954;2023-02-14T07:58:13;102757.00;;;6.48;79.22
818;BME280;391;51.052;6.954;2023-02-14T08:00:18;102753.97;;;6.42;79.66
818;BME280;391;51.052;6.954;2023-02-14T08:02:23;102757.59;;;6.44;79.34
818;BME280;391;51.052;6.954;2023-02-14T08:04:26;102758.22;;;6.42;79.14
818;BME280;391;51.052;6.954;2023-02-14T08:06:30;102763.16;;;6.38;78.80
818;BME280;391;51.052;6.954;2023-02-14T08:08:34;102746.09;;;6.41;78.94
818;BME280;391;51.052;6.954;2023-02-14T08:10:37;102758.22;;;6.42;79.29
818;BME280;391;51.052;6.954;2023-02-14T08:12:41;102747.63;;;6.38;78.98
818;BME280;391;51.052;6.954;2023-02-14T08:15:02;102751.81;;;6.36;79.33
818;BME280;391;51.052;6.954;2023-02-14T08:17:19;102758.13;;;6.40;79.57
818;BME280;391;51.052;6.954;2023-02-14T08:19:24;102750.22;;;6.38;79.49
818;BME280;391;51.052;6.954;2023-02-14T08:21:27;102760.28;;;6.46;79.20
818;BME280;391;51.052;6.954;2023-02-14T08:23:31;102764.84;;;6.60;79.22
818;BME280;391;51.052;6.954;2023-02-14T08:25:35;102732.81;;;6.48;79.04
818;BME280;391;51.052;6.954;2023-02-14T08:27:38;102761.22;;;6.58;78.75
818;BME280;391;51.052;6.954;2023-02-14T08:29:42;102765.53;;;6.57;79.17
818;BME280;391;51.052;6.954;2023-02-14T08:31:47;102758.31;;;6.65;79.00
818;BME280;391;51.052;6.954;2023-02-14T08:33:51;102764.88;;;6.71;78.63
818;BME280;391;51.052;6.954;2023-02-14T08:35:56;102760.84;;;6.75;78.47
818;BME280;391;51.052;6.954;2023-02-14T08:37:59;102765.25;;;6.76;78.39
818;BME280;391;51.052;6.954;2023-02-14T08:40:03;102757.03;;;6.81;78.48
818;BME280;391;51.052;6.954;2023-02-14T08:42:06;102758.50;;;6.89;78.63
818;BME280;391;51.052;6.954;2023-02-14T08:44:10;102765.66;;;7.04;78.55
818;BME280;391;51.052;6.954;2023-02-14T08:46:13;102761.13;;;7.13;78.15
818;BME280;391;51.052;6.954;2023-02-14T08:48:18;102765.31;;;7.22;77.82
818;BME280;391;51.052;6.954;2023-02-14T08:50:22;102760.59;;;7.28;77.63
818;BME280;391;51.052;6.954;2023-02-14T08:52:27;102761.63;;;7.30;77.39
818;BME280;391;51.052;6.954;2023-02-14T08:54:30;102769.72;;;7.35;77.09
818;BME280;391;51.052;6.954;2023-02-14T08:56:34;102768.59;;;7.31;nan
818;BME280;391;51.052;6.954;2023-02-14T08:58:38;102764.53;;;7.35;77.14
818;BME280;391;51.052;6.954;2023-02-14T09:00:42;102773.13;;;7.45;77.30
818;BME280;391;51.052;6.954;2023-02-14T09:02:49;102772.34;;;7.47;76.44
818;BME280;391;51.052;6.954;2023-02-14T09:04:52;102768.25;;;7.50;76.42
818;BME280;391;51.052;6.954;2023-02-14T09:06:56;102765.88;;;7.53;75.90
818;BME280;391;51.052;6.954;2023-02-14T09:09:01;102761.50;;;7.52;76.04
818;BME280;391;51.052;6.954;2023-02-14T09:11:08;102727.75;;;7.40;75.52
818;BME280;391;51.052;6.954;2023-02-14T09:13:12;102752.47;;;7.59;75.59
818;BME280;391;51.052;6.954;2023-02-14T09:15:16;102760.81;;;7.66;75.61
818;BME280;391;51.052;6.954;2023-02-14T09:17:19;102753.72;;;7.75;75.31
818;BME280;391;51.052;6.954;2023-02-14T09:19:23;102727.53;;;7.61;74.77
818;BME280;391;51.052;6.954;2023-02-14T09:21:27;102752.44;;;7.82;74.59
818;BME280;391;51.052;6.954;2023-02-14T09:23:31;102757.19;;;7.87;74.54
818;BME280;391;51.052;6.954;2023-02-14T09:25:36;102748.44;;;7.98;74.44
818;BME280;391;51.052;6.954;2023-02-14T09:27:39;102753.09;;;8.03;74.27
818;BME280;391;51.052;6.954;2023-02-14T09:29:42;102746.06;;;8.13;74.05
818;BME280;391;51.052;6.954;2023-02-14T09:31:46;102735.53;;;8.12;73.80
818;BME280;391;51.052;6.954;2023-02-14T09:33:50;102740.38;;;8.19;73.76
818;BME280;391;51.052;6.954;2023-02-14T09:36:11;102743.28;;;8.23;73.32
818;BME280;391;51.052;6.954;2023-02-14T09:38:32;102740.50;;;8.32;73.06
818;BME280;391;51.052;6.954;2023-02-14T09:40:36;102657.81;;;7.90;73.05
818;BME280;391;51.052;6.954;2023-02-14T09:42:49;102737.13;;;8.46;72.66
818;BME280;391;51.052;6.954;2023-02-14T09:44:56;102737.47;;;8.50;72.42
818;BME280;391;51.052;6.954;2023-02-14T09:47:06;102739.00;;;8.60;72.16
818;BME280;391;51.052;6.954;2023-02-14T09:49:16;102736.66;;;8.76;72.01
818;BME280;391;51.052;6.954;2023-02-14T09:51:23;102732.66;;;8.81;71.60
818;BME280;391;51.052;6.954;2023-02-14T09:53:30;102713.41;;;8.66;71.33
818;BME280;391;51.052;6.954;2023-02-14T09:55:39;102739.69;;;8.95;70.59
818;BME280;391;51.052;6.954;2023-02-14T09:57:58;102738.69;;;9.07;70.77
818;BME280;391;51.052;6.954;2023-02-14T10:00:16;102733.03;;;9.12;69.87
818;BME280;391;51.052;6.954;2023-02-14T10:02:37;102729.81;;;9.29;70.10
818;BME280;391;51.052;6.954;2023-02-14T10:04:50;102733.44;;;9.31;69.34
818;BME280;391;51.052;6.954;2023-02-14T10:07:01;102725.72;;;9.33;68.93
818;BME280;391;51.052;6.954;2023-02-14T10:09:21;102729.81;;;9.42;69.07
818;BME280;391;51.052;6.954;2023-02-14T10:11:31;102734.91;;;9.54;68.31
818;BME280;391;51.052;6.954;2023-02-14T10:13:39;102734.63;;;9.63;67.97
818;BME280;391;51.052;6.954;2023-02-14T10:15:46;102733.41;;;9.57;67.78
818;BME280;391;51.052;6.954;2023-02-14T10:17:53;102722.41;;;9.62;67.74
818;BME280;391;51.052;6.954;2023-02-14T10:20:00;102713.97;;;9.79;67.69
818;BME280;391;51.052;6.954;2023-02-14T10:22:08;102724.84;;;9.99;67.02
818;BME280;391;51.052;6.954;2023-02-14T10:24:17;102723.81;;;10.10;66.87
818;BME280;391;51.052;6.954;2023-02-14T10:26:26;102725.78;;;10.28;66.27
818;BME280;391;51.052;6.954;2023-02-14T10:28:34;102721.03;;;10.35;65.57
818;BME280;391;51.052;6.954;2023-02-14T10:30:43;102727.59;;;10.29;65.52
818;BME280;391;51.052;6.954;2023-02-14T10:33:00;102726.03;;;10.45;65.24
818;BME280;391;51.052;6.954;2023-02-14T10:35:15;102723.25;;;10.57;64.36
818;BME280;391;51.052;6.954;2023-02-14T10:37:30;102723.53;;;10.61;64.01
818;BME280;391;51.052;6.954;2023-02-14T10:40:03;102716.34;;;10.72;64.03
818;BME280;391;51.052;6.954;2023-02-14T10:42:20;102720.78;;;10.88;64.54
818;BME280;391;51.052;6.954;2023-02-14T10:44:40;102717.25;;;11.02;63.24
818;BME280;391;51.052;6.954;2023-02-14T10:46:50;102716.19;;;10.98;63.12
818;BME280;391;51.052;6.954;2023-02-14T10:49:01;102722.75;;;11.06;62.75
818;BME280;391;51.052;6.954;2023-02-14T10:51:15;102651.84;;;10.84;62.75
818;BME280;391;51.052;6.954;2023-02-14T10:53:27;102712.84;;;11.01;62.32
818;BME280;391;51.052;6.954;2023-02-14T10:55:43;102715.56;;;11.02;61.84
818;BME280;391;51.052;6.954;2023-02-14T10:57:51;102697.28;;;11.02;62.33
818;BME280;391;51.052;6.954;2023-02-14T10:59:59;102700.66;;;11.31;61.70
818;BME280;391;51.052;6.954;2023-02-14T11:02:05;102703.38;;;11.32;61.42
818;BME280;391;51.052;6.954;2023-02-14T11:04:10;102701.72;;;11.49;61.53
818;BME280;391;51.052;6.954;2023-02-14T11:06:15;102685.06;;;11.78;61.18
818;BME280;391;51.052;6.954;2023-02-14T11:08:24;102679.16;;;11.96;60.28
818;BME280;391;51.052;6.954;2023-02-14T11:10:31;102680.22;;;12.16;59.20
818;BME280;391;51.052;6.954;2023-02-14T11:12:38;102683.72;;;12.16;58.37
818;BME280;391;51.052;6.954;2023-02-14T11:14:42;102684.16;;;12.24;58.46
818;BME280;391;51.052;6.954;2023-02-14T11:16:47;102681.84;;;12.46;58.18
818;BME280;391;51.052;6.954;2023-02-14T11:19:07;102678.31;;;12.62;57.79
818;BME280;391;51.052;6.954;2023-02-14T11:21:15;102679.81;;;12.74;56.80
818;BME280;391;51.052;6.954;2023-02-14T11:23:23;102671.34;;;12.62;56.42
818;BME280;391;51.052;6.954;2023-02-14T11:25:38;102672.63;;;12.70;57.01
818;BME280;391;51.052;6.954;2023-02-14T11:27:44;102657.44;;;12.97;56.05
818;BME280;391;51.052;6.954;2023-02-14T11:29:51;102663.84;;;12.86;55.97
818;BME280;391;51.052;6.954;2023-02-14T11:32:05;102658.22;;;12.79;55.92
818;BME280;391;51.052;6.954;2023-02-14T11:34:28;102665.94;;;12.93;56.15
818;BME280;391;51.052;6.954;2023-02-14T11:36:39;102662.16;;;13.04;55.65
818;BME280;391;51.052;6.954;2023-02-14T11:38:44;102661.56;;;13.45;55.95
818;BME280;391;51.052;6.954;2023-02-14T11:40:57;102671.34;;;13.85;54.26
818;BME280;391;51.052;6.954;2023-02-14T11:43:17;102661.38;;;13.77;53.91
818;BME280;391;51.052;6.954;2023-02-14T11:45:30;102659.19;;;13.69;53.14
818;BME280;391;51.052;6.954;2023-02-14T11:47:36;102664.63;;;13.72;53.51
818;BME280;391;51.052;6.954;2023-02-14T11:49:53;102628.22;;;13.60;53.18
818;BME280;391;51.052;6.954;2023-02-14T11:51:58;102658.84;;;13.98;52.79
818;BME280;391;51.052;6.954;2023-02-14T11:54:04;102662.59;;;14.03;52.33
818;BME280;391;51.052;6.954;2023-02-14T11:56:08;102651.72;;;14.15;52.24